createdAt,value
2022-12-18T00:02:04.895Z,-2.20
2022-12-18T00:04:36.444Z,-2.30
2022-12-18T00:07:07.527Z,-2.30
2022-12-18T00:09:40.208Z,-2.30
2022-12-18T00:14:44.446Z,-2.40
2022-12-18T00:17:21.763Z,-2.50
2022-12-18T00:20:00.485Z,-2.40
2022-12-18T00:22:39.143Z,-2.30
2022-12-18T00:25:16.069Z,-2.40
2022-12-18T00:27:49.910Z,-2.40
2022-12-18T00:30:23.815Z,-2.30
2022-12-18T00:32:54.334Z,-2.30
2022-12-18T00:35:31.553Z,-2.20
2022-12-18T00:38:07.549Z,-2.30
2022-12-18T00:40:39.724Z,-2.20
2022-12-18T00:43:12.956Z,-2.20
2022-12-18T00:45:48.881Z,-2.20
2022-12-18T00:48:20.722Z,-2.20
2022-12-18T00:51:07.933Z,-2.30
2022-12-18T00:53:46.599Z,-2.30
2022-12-18T00:56:19.700Z,-2.30
2022-12-18T00:58:51.462Z,-2.40
2022-12-18T01:01:20.427Z,-2.40
2022-12-18T01:03:55.130Z,-2.40
2022-12-18T01:06:29.677Z,-2.50
2022-12-18T01:08:59.630Z,-2.50
2022-12-18T01:11:30.202Z,-2.50
2022-12-18T01:14:01.372Z,-2.60
2022-12-18T01:16:38.530Z,-2.50
2022-12-18T01:19:13.955Z,-2.50
2022-12-18T01:21:41.988Z,-2.60
2022-12-18T01:24:16.118Z,-2.60
2022-12-18T01:26:47.741Z,-2.60
2022-12-18T01:29:15.943Z,-2.60
2022-12-18T01:31:47.506Z,-2.50
2022-12-18T01:34:18.929Z,-2.50
2022-12-18T01:36:53.772Z,-2.60
2022-12-18T01:39:29.948Z,-2.40
2022-12-18T01:42:04.349Z,-2.40
2022-12-18T01:44:53.459Z,-2.50
2022-12-18T01:47:24.535Z,-2.40
2022-12-18T01:50:16.899Z,-2.50
2022-12-18T01:52:56.680Z,-2.30
2022-12-18T01:55:32.031Z,-2.30
2022-12-18T01:58:05.601Z,-2.40
2022-12-18T02:00:39.832Z,-2.30
2022-12-18T02:03:11.369Z,-2.30
2022-12-18T02:06:00.891Z,-2.30
2022-12-18T02:08:28.989Z,-2.30
2022-12-18T02:11:11.296Z,-2.50
2022-12-18T02:14:10.398Z,-2.50
2022-12-18T02:17:15.524Z,-2.60
2022-12-18T02:19:59.133Z,-2.70
2022-12-18T02:22:57.264Z,-2.70
2022-12-18T02:25:47.947Z,-2.70
2022-12-18T02:28:25.179Z,-2.60
2022-12-18T02:30:57.484Z,-2.60
2022-12-18T02:33:38.206Z,-2.60
2022-12-18T02:36:14.080Z,-2.70
2022-12-18T02:38:47.418Z,-2.70
2022-12-18T02:41:18.917Z,-2.70
2022-12-18T02:44:09.030Z,-2.70
2022-12-18T02:46:46.357Z,-2.80
2022-12-18T02:49:50.490Z,-2.80
2022-12-18T02:52:46.009Z,-2.70
2022-12-18T02:55:30.032Z,-2.60
2022-12-18T02:58:20.756Z,-2.60
2022-12-18T03:01:20.995Z,-2.60
2022-12-18T03:04:06.180Z,-2.50
2022-12-18T03:06:48.912Z,-2.50
2022-12-18T03:09:36.806Z,-2.60
2022-12-18T03:12:30.056Z,-2.70
2022-12-18T03:15:17.609Z,-2.70
2022-12-18T03:18:10.138Z,-2.80
2022-12-18T03:20:47.438Z,-2.80
2022-12-18T03:23:34.031Z,-2.90
2022-12-18T03:26:22.507Z,-2.90
2022-12-18T03:29:00.204Z,-3.00
2022-12-18T03:31:43.548Z,-3.00
2022-12-18T03:34:23.869Z,-3.00
2022-12-18T03:36:55.217Z,-3.00
2022-12-18T03:39:32.427Z,-3.00
2022-12-18T03:42:16.790Z,-3.00
2022-12-18T03:45:15.351Z,-2.90
2022-12-18T03:47:53.944Z,-3.00
2022-12-18T03:50:46.767Z,-3.00
2022-12-18T03:53:43.791Z,-3.00
2022-12-18T03:56:20.982Z,-3.00
2022-12-18T03:58:51.619Z,-2.90
2022-12-18T04:01:33.809Z,-2.90
2022-12-18T04:04:09.957Z,-2.90
2022-12-18T04:06:43.551Z,-2.80
2022-12-18T04:09:17.017Z,-2.80
2022-12-18T04:11:49.790Z,-2.80
2022-12-18T04:14:24.311Z,-2.90
2022-12-18T04:17:00.814Z,-2.90
2022-12-18T04:19:35.427Z,-2.90
2022-12-18T04:22:09.918Z,-2.90
2022-12-18T04:24:47.143Z,-3.00
2022-12-18T04:27:24.364Z,-3.00
2022-12-18T04:30:01.160Z,-3.00
2022-12-18T04:32:46.511Z,-3.00
2022-12-18T04:35:17.376Z,-3.00
2022-12-18T04:37:52.174Z,-3.00
2022-12-18T04:40:20.644Z,-3.00
2022-12-18T04:42:52.746Z,-2.90
2022-12-18T04:45:30.657Z,-3.00
2022-12-18T04:48:06.110Z,-3.00
2022-12-18T04:50:36.769Z,-3.00
2022-12-18T04:53:12.777Z,-2.90
2022-12-18T04:55:41.872Z,-2.90
2022-12-18T04:58:13.715Z,-2.90
2022-12-18T05:00:45.348Z,-2.90
2022-12-18T05:03:16.806Z,-2.80
2022-12-18T05:05:45.184Z,-2.80
2022-12-18T05:08:15.882Z,-2.80
2022-12-18T05:10:45.085Z,-2.70
2022-12-18T05:13:36.154Z,-2.80
2022-12-18T05:16:17.098Z,-2.70
2022-12-18T05:18:53.634Z,-2.70
2022-12-18T05:21:26.802Z,-2.70
2022-12-18T05:24:00.643Z,-2.80
2022-12-18T05:26:34.905Z,-2.80
2022-12-18T05:29:09.016Z,-2.90
2022-12-18T05:31:41.571Z,-3.00
2022-12-18T05:34:10.627Z,-2.80
2022-12-18T05:36:49.621Z,-2.80
2022-12-18T05:39:23.044Z,-2.80
2022-12-18T05:41:56.211Z,-2.80
2022-12-18T05:44:30.918Z,-2.70
2022-12-18T05:46:59.420Z,-2.70
2022-12-18T05:49:35.802Z,-2.70
2022-12-18T05:52:06.809Z,-2.80
2022-12-18T05:54:42.559Z,-2.70
2022-12-18T05:57:18.958Z,-2.70
2022-12-18T05:59:58.928Z,-2.70
2022-12-18T06:02:29.546Z,-2.70
2022-12-18T06:05:01.349Z,-2.60
2022-12-18T06:07:34.899Z,-2.60
2022-12-18T06:10:15.233Z,-2.60
2022-12-18T06:12:46.706Z,-2.60
2022-12-18T06:15:16.436Z,-2.60
2022-12-18T06:17:51.412Z,-2.70
2022-12-18T06:20:33.699Z,-2.60
2022-12-18T06:23:07.756Z,-2.60
2022-12-18T06:25:41.559Z,-2.60
2022-12-18T06:28:14.902Z,-2.60
2022-12-18T06:30:55.105Z,-2.50
2022-12-18T06:33:29.193Z,-2.50
2022-12-18T06:36:18.884Z,-2.60
2022-12-18T06:38:58.649Z,-2.60
2022-12-18T06:41:35.068Z,-2.50
2022-12-18T06:44:07.876Z,-2.50
2022-12-18T06:46:37.162Z,-2.50
2022-12-18T06:49:17.257Z,-2.60
2022-12-18T06:51:49.233Z,-2.60
2022-12-18T06:54:27.976Z,-2.60
2022-12-18T06:57:04.085Z,-2.60
2022-12-18T06:59:40.101Z,-2.60
2022-12-18T07:02:15.467Z,-2.60
2022-12-18T07:04:45.221Z,-2.60
2022-12-18T07:07:15.006Z,-2.70
2022-12-18T07:09:46.099Z,-2.70
2022-12-18T07:12:19.913Z,-2.70
2022-12-18T07:14:48.939Z,-2.60
2022-12-18T07:17:24.304Z,-2.60
2022-12-18T07:19:53.681Z,-2.60
2022-12-18T07:22:22.400Z,-2.60
2022-12-18T07:24:50.005Z,-2.60
2022-12-18T07:27:26.505Z,-2.60
2022-12-18T07:30:05.436Z,-2.60
2022-12-18T07:32:46.298Z,-2.50
2022-12-18T07:35:24.766Z,-2.70
2022-12-18T07:37:56.431Z,-2.70
2022-12-18T07:40:29.769Z,-2.80
2022-12-18T07:43:03.079Z,-2.80
2022-12-18T07:45:34.335Z,-2.70
2022-12-18T07:48:07.186Z,-2.60
2022-12-18T07:50:38.891Z,-2.60
2022-12-18T07:53:10.155Z,-2.50
2022-12-18T07:56:05.496Z,-2.50
2022-12-18T07:58:38.756Z,-2.60
2022-12-18T08:01:11.641Z,-2.50
2022-12-18T08:03:48.489Z,-2.50
2022-12-18T08:06:23.285Z,-2.50
2022-12-18T08:08:59.244Z,-2.50
2022-12-18T08:11:33.533Z,-2.50
2022-12-18T08:14:08.859Z,-2.50
2022-12-18T08:16:41.881Z,-2.40
2022-12-18T08:19:10.303Z,-2.50
2022-12-18T08:21:45.815Z,-2.40
2022-12-18T08:24:19.238Z,-2.30
2022-12-18T08:27:01.019Z,-2.20
2022-12-18T08:29:41.873Z,-2.30
2022-12-18T08:32:10.622Z,-2.20
2022-12-18T08:34:46.954Z,-2.20
2022-12-18T08:37:17.273Z,-2.10
2022-12-18T08:39:45.731Z,-2.10
2022-12-18T08:42:37.266Z,-2.30
2022-12-18T08:45:12.002Z,-2.20
2022-12-18T08:47:42.357Z,-2.40
2022-12-18T08:50:13.385Z,-2.30
2022-12-18T08:52:44.214Z,-2.30
2022-12-18T08:55:17.291Z,-2.40
2022-12-18T08:57:54.006Z,-2.40
2022-12-18T09:00:22.407Z,-2.40
2022-12-18T09:02:54.184Z,-2.30
2022-12-18T09:05:31.143Z,-2.20
2022-12-18T09:08:03.001Z,-2.10
2022-12-18T09:10:43.554Z,-2.20
2022-12-18T09:13:18.852Z,-2.10
2022-12-18T09:15:54.396Z,-2.10
2022-12-18T09:18:28.697Z,-2.00
2022-12-18T09:21:03.024Z,-2.10
2022-12-18T09:23:33.077Z,-2.20
2022-12-18T09:26:05.454Z,-2.20
2022-12-18T09:28:41.132Z,-2.30
2022-12-18T09:31:28.207Z,-2.40
2022-12-18T09:33:57.654Z,-2.30
2022-12-18T09:36:28.617Z,-2.20
2022-12-18T09:39:07.562Z,-2.30
2022-12-18T09:41:58.305Z,-2.30
2022-12-18T09:44:32.690Z,-2.40
2022-12-18T09:47:24.361Z,-2.30
2022-12-18T09:50:03.226Z,-2.20
2022-12-18T09:52:53.588Z,-2.40
2022-12-18T09:55:37.992Z,-2.50
2022-12-18T09:58:10.759Z,-2.40
2022-12-18T10:00:40.377Z,-2.40
2022-12-18T10:03:18.483Z,-2.50
2022-12-18T10:05:48.601Z,-2.40
2022-12-18T10:08:31.447Z,-2.30
2022-12-18T10:11:29.782Z,-2.40
2022-12-18T10:14:09.106Z,-2.30
2022-12-18T10:16:40.414Z,-2.30
2022-12-18T10:19:18.146Z,-2.30
2022-12-18T10:22:03.366Z,-2.20
2022-12-18T10:24:42.139Z,-2.40
2022-12-18T10:27:20.775Z,-2.50
2022-12-18T10:29:48.668Z,-2.70
2022-12-18T10:32:19.843Z,-2.90
2022-12-18T10:35:00.449Z,-3.00
2022-12-18T10:37:30.860Z,-3.00
2022-12-18T10:40:19.847Z,-2.80
2022-12-18T10:43:14.139Z,-2.50
2022-12-18T10:45:42.890Z,-2.40
2022-12-18T10:48:23.294Z,-2.20
2022-12-18T10:51:10.780Z,-2.20
2022-12-18T10:53:44.767Z,-2.40
2022-12-18T10:56:21.346Z,-2.50
2022-12-18T10:59:10.193Z,-2.40
2022-12-18T11:01:58.070Z,-2.30
2022-12-18T11:04:31.027Z,-2.30
2022-12-18T11:07:05.574Z,-2.50
2022-12-18T11:09:39.606Z,-2.60
2022-12-18T11:12:19.645Z,-2.50
2022-12-18T11:14:48.391Z,-2.80
2022-12-18T11:17:32.251Z,-2.80
2022-12-18T11:20:04.873Z,-2.80
2022-12-18T11:22:34.777Z,-2.90
2022-12-18T11:25:32.608Z,-3.00
2022-12-18T11:28:25.865Z,-3.20
2022-12-18T11:31:29.648Z,-3.20
2022-12-18T11:36:49.687Z,-2.80
2022-12-18T11:39:24.669Z,-2.80
2022-12-18T11:42:09.991Z,-2.80
2022-12-18T11:44:44.655Z,-2.70
2022-12-18T11:47:36.838Z,-2.70
2022-12-18T11:50:16.952Z,-2.80
2022-12-18T11:52:44.301Z,-2.80
2022-12-18T11:55:16.139Z,-2.80
2022-12-18T11:58:25.218Z,-2.60
2022-12-18T12:01:11.840Z,-2.60
2022-12-18T12:03:41.562Z,-2.70
2022-12-18T12:06:21.669Z,-2.70
2022-12-18T12:08:59.512Z,-3.00
2022-12-18T12:11:42.881Z,-3.10
2022-12-18T12:14:35.042Z,-3.20
2022-12-18T12:17:40.441Z,-3.10
2022-12-18T12:20:21.296Z,-3.00
2022-12-18T12:22:56.810Z,-2.90
2022-12-18T12:25:36.497Z,-2.80
2022-12-18T12:28:45.845Z,-2.70
2022-12-18T12:31:40.257Z,-2.70
2022-12-18T12:34:25.826Z,-2.70
2022-12-18T12:37:20.890Z,-2.50
2022-12-18T12:39:48.851Z,-2.50
2022-12-18T12:42:56.288Z,-2.50
2022-12-18T12:45:36.136Z,-2.40
2022-12-18T12:48:05.235Z,-2.40
2022-12-18T12:50:35.221Z,-2.40
2022-12-18T12:53:16.243Z,-2.50
2022-12-18T12:55:44.428Z,-2.60
2022-12-18T12:58:33.201Z,-2.80
2022-12-18T13:01:21.443Z,-2.90
2022-12-18T13:04:18.388Z,-3.10
2022-12-18T13:07:02.175Z,-3.00
2022-12-18T13:09:36.796Z,-3.30
2022-12-18T13:12:35.039Z,-3.30
2022-12-18T13:15:24.763Z,-3.20
2022-12-18T13:18:10.596Z,-3.10
2022-12-18T13:20:50.772Z,-3.00
2022-12-18T13:23:32.232Z,-2.80
2022-12-18T13:26:09.176Z,-2.70
2022-12-18T13:28:59.957Z,-3.00
2022-12-18T13:31:44.562Z,-2.90
2022-12-18T13:40:41.971Z,-3.20
2022-12-18T13:43:21.535Z,-3.20
2022-12-18T13:46:00.118Z,-3.20
2022-12-18T13:48:30.108Z,-3.20
2022-12-18T13:51:14.549Z,-3.20
2022-12-18T13:54:01.638Z,-3.10
2022-12-18T13:56:31.867Z,-3.20
2022-12-18T13:59:24.984Z,-3.30
2022-12-18T14:01:54.183Z,-3.20
2022-12-18T14:04:34.277Z,-3.30
2022-12-18T14:07:12.680Z,-3.50
2022-12-18T14:09:49.762Z,-3.50
2022-12-18T14:12:46.671Z,-3.30
2022-12-18T14:15:29.762Z,-2.90
2022-12-18T14:18:20.700Z,-2.90
2022-12-18T14:20:53.263Z,-2.80
2022-12-18T14:23:44.211Z,-2.70
2022-12-18T14:26:30.129Z,-2.70
2022-12-18T14:29:19.769Z,-2.80
2022-12-18T14:32:25.236Z,-2.70
2022-12-18T14:34:58.044Z,-2.90
2022-12-18T14:37:27.968Z,-3.00
2022-12-18T14:40:10.529Z,-3.00
2022-12-18T14:42:43.629Z,-3.20
2022-12-18T14:45:41.831Z,-3.50
2022-12-18T14:48:18.227Z,-3.50
2022-12-18T14:50:57.226Z,-3.40
2022-12-18T14:53:38.890Z,-3.60
2022-12-18T14:56:17.179Z,-3.70
2022-12-18T14:59:24.967Z,-3.60
2022-12-18T15:02:04.072Z,-3.60
2022-12-18T15:04:45.001Z,-3.70
2022-12-18T15:07:14.628Z,-3.70
2022-12-18T15:10:02.671Z,-3.80
2022-12-18T15:12:37.573Z,-3.80
2022-12-18T15:15:34.079Z,-3.80
2022-12-18T15:18:13.702Z,-3.90
2022-12-18T15:20:54.160Z,-3.70
2022-12-18T15:23:28.058Z,-3.60
2022-12-18T15:26:04.369Z,-3.60
2022-12-18T15:28:41.334Z,-3.80
2022-12-18T15:31:09.928Z,-3.70
2022-12-18T15:34:04.090Z,-3.80
2022-12-18T15:36:37.435Z,-3.70
2022-12-18T15:39:06.864Z,-3.70
2022-12-18T15:41:36.533Z,-3.70
2022-12-18T15:44:26.568Z,-3.60
2022-12-18T15:46:56.402Z,-3.80
2022-12-18T15:49:25.603Z,-3.90
2022-12-18T15:51:57.590Z,-4.00
2022-12-18T15:54:43.264Z,-4.00
2022-12-18T15:57:27.447Z,-3.80
2022-12-18T15:59:58.877Z,-3.80
2022-12-18T16:02:29.938Z,-3.90
2022-12-18T16:04:59.774Z,-4.00
2022-12-18T16:07:31.542Z,-4.20
2022-12-18T16:10:04.017Z,-4.20
2022-12-18T16:12:31.666Z,-4.20
2022-12-18T16:15:01.165Z,-4.10
2022-12-18T16:17:30.995Z,-4.00
2022-12-18T16:20:00.891Z,-4.00
2022-12-18T16:22:31.596Z,-4.00
2022-12-18T16:24:58.969Z,-4.00
2022-12-18T16:27:30.987Z,-4.00
2022-12-18T16:30:02.833Z,-4.00
2022-12-18T16:32:32.823Z,-4.00
2022-12-18T16:35:01.503Z,-4.00
2022-12-18T16:37:28.919Z,-4.00
2022-12-18T16:39:58.628Z,-4.10
2022-12-18T16:42:25.961Z,-4.10
2022-12-18T16:44:57.635Z,-4.10
2022-12-18T16:47:28.270Z,-4.20
2022-12-18T16:49:57.610Z,-4.50
2022-12-18T16:52:25.000Z,-4.60
2022-12-18T16:54:59.287Z,-4.50
2022-12-18T16:57:26.855Z,-4.50
2022-12-18T17:00:04.365Z,-4.40
2022-12-18T17:02:35.509Z,-4.50
2022-12-18T17:05:10.782Z,-4.50
2022-12-18T17:07:41.429Z,-4.60
2022-12-18T17:10:08.932Z,-4.40
2022-12-18T17:12:39.851Z,-4.30
2022-12-18T17:15:07.709Z,-4.20
2022-12-18T17:17:37.897Z,-4.10
2022-12-18T17:20:08.172Z,-4.10
2022-12-18T17:22:37.900Z,-4.20
2022-12-18T17:25:07.601Z,-4.10
2022-12-18T17:27:42.187Z,-4.20
2022-12-18T17:30:15.297Z,-4.30
2022-12-18T17:32:44.837Z,-4.30
2022-12-18T17:35:14.261Z,-4.40
2022-12-18T17:37:43.980Z,-4.30
2022-12-18T17:40:13.338Z,-4.20
2022-12-18T17:42:43.045Z,-4.20
2022-12-18T17:45:12.742Z,-4.20
2022-12-18T17:47:40.224Z,-4.20
2022-12-18T17:50:09.911Z,-4.20
2022-12-18T17:52:37.496Z,-4.20
2022-12-18T17:55:04.943Z,-4.30
2022-12-18T17:57:35.281Z,-4.20
2022-12-18T18:00:03.961Z,-4.20
2022-12-18T18:02:36.962Z,-4.30
2022-12-18T18:05:05.227Z,-4.30
2022-12-18T18:07:37.456Z,-4.40
2022-12-18T18:10:07.704Z,-4.50
2022-12-18T18:12:56.247Z,-4.60
2022-12-18T18:15:25.808Z,-4.60
2022-12-18T18:17:55.336Z,-4.60
2022-12-18T18:20:22.894Z,-4.80
2022-12-18T18:22:55.347Z,-4.80
2022-12-18T18:25:22.425Z,-4.60
2022-12-18T18:27:52.550Z,-4.50
2022-12-18T18:30:24.477Z,-4.60
2022-12-18T18:32:59.295Z,-4.60
2022-12-18T18:35:52.793Z,-4.50
2022-12-18T18:38:16.669Z,-4.50
2022-12-18T18:40:49.004Z,-4.40
2022-12-18T18:43:18.910Z,-4.40
2022-12-18T18:45:50.847Z,-4.30
2022-12-18T18:48:22.973Z,-4.30
2022-12-18T18:50:59.813Z,-4.30
2022-12-18T18:53:35.511Z,-4.40
2022-12-18T18:56:45.480Z,-4.40
2022-12-18T18:58:55.978Z,-4.50
2022-12-18T19:01:24.010Z,-4.40
2022-12-18T19:03:58.453Z,-4.30
2022-12-18T19:06:27.619Z,-4.30
2022-12-18T19:09:01.430Z,-4.40
2022-12-18T19:11:54.580Z,-4.60
2022-12-18T19:14:27.090Z,-4.50
2022-12-18T19:16:56.724Z,-4.50
2022-12-18T19:19:27.283Z,-4.50
2022-12-18T19:21:59.459Z,-4.50
2022-12-18T19:24:26.920Z,-4.50
2022-12-18T19:26:58.086Z,-4.60
2022-12-18T19:29:25.687Z,-4.70
2022-12-18T19:31:52.954Z,-4.80
2022-12-18T19:34:23.078Z,-4.80
2022-12-18T19:36:52.937Z,-4.90
2022-12-18T19:39:26.587Z,-4.80
2022-12-18T19:41:58.557Z,-4.90
2022-12-18T19:44:28.525Z,-5.10
2022-12-18T19:46:55.755Z,-5.00
2022-12-18T19:49:25.587Z,-4.90
2022-12-18T19:51:57.638Z,-4.80
2022-12-18T19:54:27.506Z,-4.60
2022-12-18T19:56:59.361Z,-4.60
2022-12-18T19:59:29.518Z,-4.60
2022-12-18T20:02:01.181Z,-4.50
2022-12-18T20:04:32.010Z,-4.70
2022-12-18T20:07:03.230Z,-4.80
2022-12-18T20:09:37.072Z,-4.90
2022-12-18T20:12:05.023Z,-4.80
2022-12-18T20:14:32.860Z,-4.80
2022-12-18T20:17:00.594Z,-4.80
2022-12-18T20:19:30.282Z,-4.80
2022-12-18T20:21:59.584Z,-4.80
2022-12-18T20:24:29.405Z,-4.80
2022-12-18T20:27:00.995Z,-4.80
2022-12-18T20:29:28.727Z,-4.90
2022-12-18T20:31:56.054Z,-4.90
2022-12-18T20:34:28.129Z,-4.90
2022-12-18T20:36:57.851Z,-4.80
2022-12-18T20:39:26.440Z,-4.90
2022-12-18T20:41:56.138Z,-4.90
2022-12-18T20:44:27.266Z,-5.00
2022-12-18T20:47:03.374Z,-4.90
2022-12-18T20:49:40.718Z,-4.90
2022-12-18T20:52:14.744Z,-4.90
2022-12-18T20:54:42.270Z,-4.90
2022-12-18T20:57:11.707Z,-4.90
2022-12-18T20:59:47.767Z,-4.90
2022-12-18T21:02:17.866Z,-5.00
2022-12-18T21:04:50.172Z,-4.90
2022-12-18T21:07:19.641Z,-4.90
2022-12-18T21:09:53.927Z,-4.90
2022-12-18T21:12:52.303Z,-4.90
2022-12-18T21:15:32.401Z,-4.80
2022-12-18T21:18:04.401Z,-4.80
2022-12-18T21:20:34.322Z,-4.70
2022-12-18T21:23:15.747Z,-4.70
2022-12-18T21:25:53.028Z,-4.60
2022-12-18T21:28:25.710Z,-4.50
2022-12-18T21:30:55.593Z,-4.60
2022-12-18T21:33:27.742Z,-4.60
2022-12-18T21:35:57.911Z,-4.60
2022-12-18T21:38:27.734Z,-4.50
2022-12-18T21:40:57.286Z,-4.50
2022-12-18T21:43:43.033Z,-4.50
2022-12-18T21:46:15.334Z,-4.50
2022-12-18T21:48:43.425Z,-4.60
2022-12-18T21:51:10.929Z,-4.60
2022-12-18T21:53:42.545Z,-4.60
2022-12-18T21:56:12.030Z,-4.50
2022-12-18T21:58:41.226Z,-4.50
2022-12-18T22:01:31.367Z,-4.50
2022-12-18T22:04:09.660Z,-4.50
2022-12-18T22:06:37.322Z,-4.50
2022-12-18T22:09:10.501Z,-4.50
2022-12-18T22:11:40.280Z,-4.50
2022-12-18T22:14:07.672Z,-4.50
2022-12-18T22:16:37.174Z,-4.50
2022-12-18T22:19:08.162Z,-4.40
2022-12-18T22:21:41.207Z,-4.40
2022-12-18T22:24:14.814Z,-4.40
2022-12-18T22:26:42.568Z,-4.30
2022-12-18T22:29:39.313Z,-4.40
2022-12-18T22:32:13.020Z,-4.50
2022-12-18T22:34:42.216Z,-4.50
2022-12-18T22:37:11.995Z,-4.60
2022-12-18T22:39:39.277Z,-4.70
2022-12-18T22:42:07.329Z,-4.70
2022-12-18T22:44:34.797Z,-4.70
2022-12-18T22:47:07.519Z,-4.60
2022-12-18T22:49:38.617Z,-4.60
2022-12-18T22:52:12.256Z,-4.60
2022-12-18T22:54:43.490Z,-4.60
2022-12-18T22:57:10.914Z,-4.70
2022-12-18T22:59:44.684Z,-4.70
2022-12-18T23:02:14.418Z,-4.80
2022-12-18T23:04:50.966Z,-4.70
2022-12-18T23:07:23.090Z,-4.70
2022-12-18T23:09:59.616Z,-4.60
2022-12-18T23:12:33.494Z,-4.70
2022-12-18T23:15:05.491Z,-4.60
2022-12-18T23:17:35.041Z,-4.60
2022-12-18T23:20:02.072Z,-4.50
2022-12-18T23:22:33.673Z,-4.50
2022-12-18T23:25:05.268Z,-4.50
2022-12-18T23:27:40.704Z,-4.50
2022-12-18T23:30:08.366Z,-4.50
2022-12-18T23:32:38.704Z,-4.50
2022-12-18T23:35:10.910Z,-4.50
2022-12-18T23:38:00.490Z,-4.50
2022-12-18T23:40:30.323Z,-4.50
2022-12-18T23:43:02.265Z,-4.60
2022-12-18T23:45:31.550Z,-4.50
2022-12-18T23:48:06.749Z,-4.50
2022-12-18T23:50:38.549Z,-4.50
2022-12-18T23:53:09.825Z,-4.50
2022-12-18T23:55:44.246Z,-4.50
2022-12-18T23:58:19.670Z,-4.60
